Time;durP1;ratioP1;P1;durP2;ratioP2;P2;SDS_P1;SDS_P2;PMS_P1;PMS_P2;Temp;Humidity;BMP_temperature;BMP_pressure;BME280_temperature;BME280_humidity;BME280_pressure;Samples;Min_cycle;Max_cycle;Signal;HPM_P1;HPM_P2
2022/07/06 00:02:13;;;;;;;18.10;15.80;;;;;;;23.77;80.61;95004.97;5030051;28;20638;-64
2022/07/06 00:04:40;;;;;;;12.25;11.15;;;;;;;23.99;78.83;95008.22;5027415;28;20606;-66
2022/07/06 00:07:07;;;;;;;13.77;12.00;;;;;;;24.25;76.98;95011.13;5027219;28;20227;-67
2022/07/06 00:09:33;;;;;;;12.18;10.98;;;;;;;24.36;76.53;95013.59;5030008;28;20214;-65
2022/07/06 00:12:02;;;;;;;12.48;11.38;;;;;;;24.49;76.16;95015.13;5030032;28;20215;-66
2022/07/06 00:14:29;;;;;;;11.02;10.13;;;;;;;24.68;74.05;95020.28;5030298;28;20692;-66
2022/07/06 00:16:55;;;;;;;12.30;11.18;;;;;;;24.80;74.13;95010.56;5029776;28;20207;-66
2022/07/06 00:19:22;;;;;;;11.30;10.27;;;;;;;25.03;73.99;95015.34;5029596;28;20207;-64
2022/07/06 00:21:49;;;;;;;11.30;10.18;;;;;;;25.17;73.10;95021.88;5029331;28;20685;-65
2022/07/06 00:24:17;;;;;;;14.30;10.13;;;;;;;24.87;74.48;95014.25;5029701;28;20211;-65
2022/07/06 00:26:44;;;;;;;11.30;10.23;;;;;;;24.18;76.99;95030.78;5029666;28;20237;-65
2022/07/06 00:29:12;;;;;;;12.90;11.73;;;;;;;23.94;77.66;95038.09;5029973;28;20828;-65
2022/07/06 00:31:39;;;;;;;12.80;11.52;;;;;;;24.06;76.55;95031.84;5030412;28;20211;-66
2022/07/06 00:34:06;;;;;;;12.00;10.68;;;;;;;24.30;75.75;95032.31;5030478;28;20207;-65
2022/07/06 00:36:33;;;;;;;14.23;10.90;;;;;;;24.42;75.12;95036.44;5030034;28;20210;-65
2022/07/06 00:38:59;;;;;;;10.93;9.90;;;;;;;24.52;74.07;95038.19;5030304;28;21284;-67
2022/07/06 00:41:26;;;;;;;13.70;9.48;;;;;;;24.59;73.41;95036.69;5029471;28;20207;-64
2022/07/06 00:43:55;;;;;;;11.75;9.35;;;;;;;24.65;73.07;95046.56;5029395;28;20276;-66
2022/07/06 00:46:28;;;;;;;12.52;8.45;;;;;;;24.75;72.75;95039.56;5029693;28;20226;-66
2022/07/06 00:48:55;;;;;;;9.25;8.32;;;;;;;24.87;72.07;95051.47;5028938;28;20680;-67
2022/07/06 00:51:29;;;;;;;8.82;8.02;;;;;;;24.94;71.70;95047.38;5029334;28;20214;-67
2022/07/06 00:53:58;;;;;;;9.45;8.63;;;;;;;24.70;72.71;95044.38;5029676;28;20755;-67
2022/07/06 00:56:26;;;;;;;12.68;9.82;;;;;;;23.53;78.43;95026.91;5029209;28;20235;-66
2022/07/06 00:58:53;;;;;;;11.85;10.07;;;;;;;22.80;82.44;95017.47;5028848;28;20211;-66
2022/07/06 01:01:19;;;;;;;14.00;9.93;;;;;;;22.76;82.24;95016.09;5027829;28;20195;-65
2022/07/06 01:03:48;;;;;;;10.25;9.35;;;;;;;23.25;79.51;94999.06;5027916;28;20203;-65
2022/07/06 01:06:15;;;;;;;16.67;10.45;;;;;;;23.34;79.54;94996.50;5027796;28;20222;-65
2022/07/06 01:08:41;;;;;;;9.85;8.63;;;;;;;23.23;79.95;94993.19;5028308;28;20207;-67
2022/07/06 01:11:09;;;;;;;10.80;9.88;;;;;;;23.15;80.20;94985.22;5027276;28;20205;-67
2022/07/06 01:13:35;;;;;;;9.82;8.38;;;;;;;23.54;77.94;94987.03;5028493;28;20214;-66
2022/07/06 01:16:02;;;;;;;10.82;9.82;;;;;;;23.91;75.68;94989.06;5029320;28;20284;-66
2022/07/06 01:18:29;;;;;;;9.27;8.40;;;;;;;24.22;74.83;94980.22;5029571;28;20588;-66
2022/07/06 01:21:08;;;;;;;9.85;8.73;;;;;;;24.30;74.05;94984.75;5029041;28;20213;-66
2022/07/06 01:23:40;;;;;;;9.45;8.75;;;;;;;24.46;73.26;94994.59;5028654;28;20214;-66
2022/07/06 01:26:06;;;;;;;9.75;8.85;;;;;;;24.52;72.85;94994.03;5028587;28;20261;-67
2022/07/06 01:28:33;;;;;;;10.85;8.52;;;;;;;24.49;72.58;94989.97;5028863;28;20793;-65
2022/07/06 01:31:00;;;;;;;9.90;9.05;;;;;;;24.59;72.48;94985.56;5028703;28;20215;-67
2022/07/06 01:33:27;;;;;;;9.70;8.77;;;;;;;24.69;71.41;94990.75;5029129;28;20206;-65
2022/07/06 01:35:53;;;;;;;11.52;7.72;;;;;;;24.72;71.28;94993.91;5028490;28;20680;-66
2022/07/06 01:38:21;;;;;;;8.93;8.32;;;;;;;24.69;71.59;94986.38;5028891;28;20203;-67
2022/07/06 01:40:48;;;;;;;10.63;8.30;;;;;;;24.72;71.43;94995.69;5029048;28;20206;-65
2022/07/06 01:43:15;;;;;;;7.97;7.35;;;;;;;24.80;70.87;94988.00;5028672;28;20234;-66
2022/07/06 01:45:42;;;;;;;11.57;8.23;;;;;;;24.68;71.25;94992.53;5028232;28;20757;-65
2022/07/06 01:48:09;;;;;;;7.93;7.38;;;;;;;24.62;70.94;94990.47;5028935;28;20308;-66
2022/07/06 01:50:36;;;;;;;7.93;7.30;;;;;;;24.61;71.02;94983.63;5028393;28;20206;-65
2022/07/06 01:53:02;;;;;;;8.27;7.57;;;;;;;24.54;70.59;94984.31;5028851;28;20530;-65
2022/07/06 01:55:30;;;;;;;8.45;7.57;;;;;;;24.37;71.48;94986.66;5028830;28;20257;-67
2022/07/06 01:57:57;;;;;;;7.43;6.88;;;;;;;24.32;71.28;94994.03;5027343;28;20243;-66
2022/07/06 02:00:24;;;;;;;8.00;7.28;;;;;;;24.26;71.35;95004.16;5027280;28;20207;-66
2022/07/06 02:02:51;;;;;;;8.40;7.63;;;;;;;24.27;71.42;95000.59;5027686;28;20666;-66
2022/07/06 02:05:18;;;;;;;7.82;7.20;;;;;;;24.33;70.47;95011.25;5026988;28;20226;-66
2022/07/06 02:07:44;;;;;;;7.75;7.03;;;;;;;24.31;70.89;95002.78;5027932;28;20273;-66
2022/07/06 02:10:11;;;;;;;8.02;7.43;;;;;;;24.36;70.06;94995.41;5028298;28;20266;-65
2022/07/06 02:12:39;;;;;;;8.80;8.10;;;;;;;24.39;69.90;95000.34;5027360;28;20226;-66
2022/07/06 02:15:07;;;;;;;7.82;7.20;;;;;;;24.47;69.65;94997.06;5028776;28;20588;-66
2022/07/06 02:17:34;;;;;;;7.72;6.88;;;;;;;24.45;69.42;94998.16;5027914;28;20210;-66
2022/07/06 02:20:01;;;;;;;8.13;7.43;;;;;;;24.46;69.02;94999.81;5028277;28;20945;-67
2022/07/06 02:22:27;;;;;;;7.50;6.78;;;;;;;24.46;69.15;94998.03;5028036;28;20206;-66
2022/07/06 02:24:54;;;;;;;7.90;7.18;;;;;;;24.39;69.28;94995.16;5028355;28;20648;-66
2022/07/06 02:27:21;;;;;;;7.38;6.45;;;;;;;24.29;69.02;94993.50;5027317;28;20284;-67
2022/07/06 02:29:49;;;;;;;7.93;7.22;;;;;;;24.33;69.24;94993.09;5028135;28;20215;-65
2022/07/06 02:32:16;;;;;;;7.43;6.72;;;;;;;24.42;68.51;94989.69;5027639;28;21694;-65
2022/07/06 02:34:42;;;;;;;6.38;5.97;;;;;;;24.34;68.39;94984.34;5027103;28;20265;-66
2022/07/06 02:37:10;;;;;;;6.65;6.15;;;;;;;24.36;68.51;94982.44;5027997;28;20214;-65
2022/07/06 02:39:36;;;;;;;8.02;5.97;;;;;;;24.30;68.22;94985.56;5027961;28;20199;-65
2022/07/06 02:42:04;;;;;;;7.50;6.80;;;;;;;24.39;67.70;94989.13;5028605;28;20199;-65
2022/07/06 02:44:30;;;;;;;8.38;6.22;;;;;;;24.39;67.58;94989.13;5027926;28;20280;-65
2022/07/06 02:46:58;;;;;;;6.80;6.18;;;;;;;24.32;68.09;94983.66;5027493;28;20742;-65
2022/07/06 02:49:25;;;;;;;7.68;7.00;;;;;;;24.19;68.00;94993.47;5028135;28;20207;-65
2022/07/06 02:51:52;;;;;;;7.18;5.97;;;;;;;24.05;68.66;94986.06;5028377;28;20217;-65
2022/07/06 02:54:19;;;;;;;6.40;6.00;;;;;;;23.93;69.27;94992.34;5027724;28;20203;-66
2022/07/06 02:56:50;;;;;;;6.32;5.90;;;;;;;24.06;68.61;94987.69;5025869;28;20227;-64
2022/07/06 02:59:17;;;;;;;6.72;6.18;;;;;;;24.03;68.93;94987.97;5026491;28;20257;-65
2022/07/06 03:01:44;;;;;;;7.47;6.88;;;;;;;23.88;70.02;94991.91;5026623;28;20527;-65
2022/07/06 03:04:12;;;;;;;6.45;5.93;;;;;;;23.85;70.70;94994.78;5026459;28;21199;-63
2022/07/06 03:06:39;;;;;;;7.38;6.72;;;;;;;23.91;70.08;94996.84;5026968;28;20203;-65
2022/07/06 03:09:05;;;;;;;7.20;6.70;;;;;;;23.88;69.84;94999.69;5027462;28;20215;-66
2022/07/06 03:11:35;;;;;;;7.50;6.75;;;;;;;23.86;69.72;94997.25;5027467;28;20218;-65
2022/07/06 03:14:03;;;;;;;6.90;6.40;;;;;;;23.78;71.21;94991.06;5028199;28;20195;-65
2022/07/06 03:16:29;;;;;;;6.35;6.03;;;;;;;23.83;70.03;95004.47;5028601;28;20731;-65
2022/07/06 03:18:57;;;;;;;7.00;5.72;;;;;;;23.97;69.25;95004.09;5028441;28;20209;-66
2022/07/06 03:21:25;;;;;;;7.25;5.90;;;;;;;23.91;69.80;95004.63;5027758;28;20205;-67
2022/07/06 03:23:52;;;;;;;8.55;6.55;;;;;;;24.09;67.93;95005.59;5027185;28;20696;-66
2022/07/06 03:26:19;;;;;;;7.72;6.50;;;;;;;24.20;67.74;95010.69;5031265;28;20878;-66
2022/07/06 03:28:46;;;;;;;6.60;6.10;;;;;;;24.09;68.51;95014.22;5031546;28;20663;-65
2022/07/06 03:31:12;;;;;;;6.25;5.82;;;;;;;24.11;67.58;95027.06;5031243;28;20214;-65
2022/07/06 03:33:39;;;;;;;7.72;6.30;;;;;;;24.11;68.09;95021.06;5031114;28;20656;-65
2022/07/06 03:36:07;;;;;;;6.78;6.18;;;;;;;24.15;67.20;95022.44;5032332;28;20203;-66
2022/07/06 03:38:35;;;;;;;8.75;5.47;;;;;;;24.35;66.76;95024.94;5030951;28;20210;-66
2022/07/06 03:41:02;;;;;;;6.15;5.60;;;;;;;24.66;65.19;95027.41;5031431;28;20600;-64
2022/07/06 03:43:29;;;;;;;6.60;5.97;;;;;;;24.74;64.78;95030.16;5031282;28;20269;-66
2022/07/06 03:45:55;;;;;;;7.10;6.43;;;;;;;24.95;63.54;95028.22;5031027;28;20275;-66
2022/07/06 03:48:22;;;;;;;8.85;6.07;;;;;;;25.57;61.92;95032.00;5031384;28;20235;-66
2022/07/06 03:50:49;;;;;;;8.60;5.05;;;;;;;26.53;58.85;95028.06;5031473;28;20296;-65
2022/07/06 03:53:16;;;;;;;6.80;5.65;;;;;;;27.42;56.17;95025.34;5030368;28;20207;-65
2022/07/06 03:56:27;;;;;;;6.25;5.65;;;;;;;28.47;53.28;95017.09;5030803;28;20241;-65
2022/07/06 03:58:31;;;;;;;5.57;5.18;;;;;;;29.88;50.49;95021.03;5030800;28;20326;-65
2022/07/06 04:00:57;;;;;;;6.78;5.57;;;;;;;30.85;47.06;95015.25;5030839;28;20288;-66
2022/07/06 04:03:24;;;;;;;6.05;5.10;;;;;;;31.67;44.95;95021.41;5030509;28;20365;-65
2022/07/06 04:05:51;;;;;;;8.05;7.07;;;;;;;32.42;43.25;95028.19;5030333;28;20658;-67
2022/07/06 04:08:17;;;;;;;12.73;11.50;;;;;;;32.48;43.45;95027.44;5030725;28;21067;-65
2022/07/06 04:10:46;;;;;;;9.43;6.90;;;;;;;32.91;42.11;95028.31;5030388;28;20210;-65
2022/07/06 04:13:12;;;;;;;6.53;6.03;;;;;;;32.89;42.40;95025.06;5030117;28;20664;-64
2022/07/06 04:15:39;;;;;;;8.65;5.50;;;;;;;32.37;42.87;95023.50;5030508;28;20253;-66
2022/07/06 04:18:06;;;;;;;7.20;5.50;;;;;;;31.48;44.89;95024.53;5030812;28;20257;-66
2022/07/06 04:20:33;;;;;;;5.50;5.10;;;;;;;30.61;47.26;95016.25;5030499;28;20206;-67
2022/07/06 04:23:00;;;;;;;6.18;5.20;;;;;;;29.72;48.90;95021.91;5030583;28;20684;-68
2022/07/06 04:25:27;;;;;;;6.07;5.57;;;;;;;29.20;50.31;95026.78;5030352;28;20203;-66
2022/07/06 04:27:55;;;;;;;7.68;5.53;;;;;;;28.65;51.35;95032.66;5030663;28;20614;-65
2022/07/06 04:30:22;;;;;;;9.77;5.47;;;;;;;28.10;52.92;95030.56;5030623;28;20265;-66
2022/07/06 04:32:48;;;;;;;5.82;5.07;;;;;;;27.66;54.25;95040.34;5030251;28;20202;-67
2022/07/06 04:35:15;;;;;;;7.10;6.47;;;;;;;27.42;54.85;95047.03;5030009;28;20203;-66
2022/07/06 04:37:42;;;;;;;8.65;7.78;;;;;;;27.21;55.39;95051.00;5030036;28;20684;-65
2022/07/06 04:40:10;;;;;;;6.68;6.07;;;;;;;26.94;56.34;95054.50;5029941;28;20578;-66
2022/07/06 04:42:38;;;;;;;7.20;5.93;;;;;;;26.84;56.55;95045.94;5030282;28;20210;-66
2022/07/06 04:45:07;;;;;;;8.18;7.35;;;;;;;26.49;58.41;95046.75;5030065;28;20281;-66
2022/07/06 04:47:34;;;;;;;9.43;6.53;;;;;;;26.25;59.00;95065.53;5030465;28;20266;-65
2022/07/06 04:50:01;;;;;;;7.78;7.00;;;;;;;25.80;60.98;95061.13;5029738;28;20289;-65
2022/07/06 04:52:28;;;;;;;11.15;9.00;;;;;;;24.90;63.55;95069.38;5029891;28;20299;-65
2022/07/06 04:54:55;;;;;;;17.55;13.90;;;;;;;24.47;65.48;95075.00;5029199;28;20648;-64
2022/07/06 04:57:22;;;;;;;23.40;11.25;;;;;;;24.02;67.28;95061.59;5029717;28;20599;-65
2022/07/06 04:59:49;;;;;;;9.93;9.02;;;;;;;23.51;69.44;95080.66;5029609;28;20734;-66
2022/07/06 05:02:17;;;;;;;10.32;9.25;;;;;;;23.27;71.05;95087.88;5029467;28;20206;-64
2022/07/06 05:04:44;;;;;;;12.82;10.55;;;;;;;23.16;71.09;95087.97;5029664;28;20234;-64
2022/07/06 05:07:10;;;;;;;10.05;9.20;;;;;;;22.97;72.25;95086.06;5029607;28;20207;-65
2022/07/06 05:09:37;;;;;;;12.07;10.82;;;;;;;22.90;72.61;95084.94;5029472;28;20716;-65
2022/07/06 05:12:04;;;;;;;12.85;11.73;;;;;;;22.61;73.50;95092.44;5029605;28;20199;-65
2022/07/06 05:14:31;;;;;;;15.52;10.85;;;;;;;22.61;74.00;95097.63;5029498;28;20202;-64
2022/07/06 05:16:58;;;;;;;12.93;10.90;;;;;;;22.64;74.41;95098.19;5029094;28;20230;-66
2022/07/06 05:19:26;;;;;;;14.35;11.07;;;;;;;22.94;72.74;95107.88;5028989;28;20492;-66
2022/07/06 05:21:53;;;;;;;13.23;11.23;;;;;;;23.16;72.50;95106.94;5029714;28;20211;-66
2022/07/06 05:24:20;;;;;;;17.33;11.40;;;;;;;23.30;72.00;95113.56;5028457;28;20599;-66
2022/07/06 05:26:46;;;;;;;11.68;10.65;;;;;;;23.87;70.11;95110.47;5029577;28;20203;-66
2022/07/06 05:29:13;;;;;;;14.70;11.57;;;;;;;24.84;66.64;95106.31;5028906;28;20329;-66
2022/07/06 05:31:40;;;;;;;15.82;12.32;;;;;;;25.31;65.09;95103.84;5028810;28;20778;-66
2022/07/06 05:34:07;;;;;;;15.50;10.70;;;;;;;26.05;62.29;95112.53;5028983;28;20206;-67
2022/07/06 05:36:35;;;;;;;11.15;10.05;;;;;;;26.44;61.27;95112.38;5029094;28;20276;-67
2022/07/06 05:39:02;;;;;;;13.05;10.00;;;;;;;28.12;55.92;95112.22;5028853;28;20750;-65
2022/07/06 05:41:28;;;;;;;10.85;9.45;;;;;;;29.04;53.12;95106.91;5028725;28;20218;-66
2022/07/06 05:43:55;;;;;;;16.90;10.25;;;;;;;29.50;52.36;95112.47;5028783;28;20211;-66
2022/07/06 05:46:22;;;;;;;10.10;8.98;;;;;;;30.66;49.24;95112.81;5029055;28;20276;-64
2022/07/06 05:51:34;;;;;;;10.38;9.43;;;;;;;32.78;43.36;95115.03;5028846;28;20209;-65
2022/07/06 05:54:01;;;;;;;10.15;8.63;;;;;;;32.30;43.81;95114.66;5028488;28;20203;-64
2022/07/06 05:56:28;;;;;;;9.55;8.57;;;;;;;30.69;47.08;95112.44;5028424;28;20288;-67
2022/07/06 05:58:55;;;;;;;9.98;9.00;;;;;;;29.21;50.89;95115.56;5029050;28;20511;-64
2022/07/06 06:01:22;;;;;;;10.38;9.27;;;;;;;27.74;54.32;95114.31;5028415;28;20214;-65
2022/07/06 06:03:49;;;;;;;10.10;9.00;;;;;;;26.45;58.42;95110.59;5028314;28;20203;-65
2022/07/06 06:06:16;;;;;;;9.63;8.65;;;;;;;25.54;60.64;95110.38;5028239;28;20230;-65
2022/07/06 06:08:44;;;;;;;10.35;9.55;;;;;;;24.93;63.34;95123.72;5028733;28;20218;-64
2022/07/06 06:11:10;;;;;;;10.18;9.18;;;;;;;24.56;64.70;95126.13;5028067;28;20215;-64
2022/07/06 06:13:37;;;;;;;10.55;9.48;;;;;;;24.34;65.60;95113.38;5028281;28;20260;-65
2022/07/06 06:16:05;;;;;;;11.65;9.40;;;;;;;24.01;66.24;95117.06;5028583;28;20807;-65
2022/07/06 06:18:31;;;;;;;11.57;9.85;;;;;;;23.83;67.70;95121.25;5028049;28;20207;-65
2022/07/06 06:20:58;;;;;;;11.07;9.98;;;;;;;23.65;67.86;95114.06;5028489;28;20265;-65
2022/07/06 06:23:25;;;;;;;14.73;11.50;;;;;;;23.33;69.54;95116.72;5028446;28;20207;-64
2022/07/06 06:25:53;;;;;;;13.77;11.60;;;;;;;23.48;69.36;95111.22;5028435;28;20272;-65
2022/07/06 06:28:20;;;;;;;11.25;10.25;;;;;;;23.54;68.61;95111.56;5028301;28;20218;-65
2022/07/06 06:30:47;;;;;;;12.60;9.80;;;;;;;23.48;68.81;95111.22;5028358;28;20774;-64
2022/07/06 06:33:15;;;;;;;10.43;9.52;;;;;;;23.49;68.64;95115.47;5027840;28;20211;-66
2022/07/06 06:35:44;;;;;;;12.05;11.00;;;;;;;23.60;68.55;95110.22;5028288;28;20207;-64
2022/07/06 06:38:11;;;;;;;11.18;10.10;;;;;;;23.69;68.74;95112.06;5028291;28;20845;-65
2022/07/06 06:40:38;;;;;;;11.13;10.13;;;;;;;24.18;67.74;95108.69;5027966;28;20603;-65
2022/07/06 06:43:06;;;;;;;11.40;10.20;;;;;;;24.85;65.53;95105.38;5027811;28;20692;-65
2022/07/06 06:45:33;;;;;;;11.50;9.77;;;;;;;25.22;63.93;95096.91;5028274;28;20218;-65
2022/07/06 06:48:00;;;;;;;12.50;11.35;;;;;;;25.09;63.71;95103.19;5027452;28;20714;-64
2022/07/06 06:50:27;;;;;;;10.55;9.65;;;;;;;25.24;63.88;95100.19;5028629;28;20284;-64
2022/07/06 06:52:54;;;;;;;11.55;10.05;;;;;;;25.26;63.26;95103.44;5028179;28;20207;-65
2022/07/06 06:55:21;;;;;;;11.20;10.30;;;;;;;24.85;64.28;95102.78;5027289;28;20215;-65
2022/07/06 06:57:48;;;;;;;10.23;9.43;;;;;;;24.63;64.45;95103.03;5027940;28;20301;-65
2022/07/06 07:00:16;;;;;;;11.48;10.40;;;;;;;24.62;65.27;95088.41;5030813;28;20965;-69
2022/07/06 07:02:43;;;;;;;63.20;41.35;;;;;;;24.59;64.54;95093.88;5031749;28;20207;-69
2022/07/06 07:05:10;;;;;;;26.83;20.67;;;;;;;24.61;64.79;95091.97;5031316;28;20813;-67
2022/07/06 07:07:37;;;;;;;17.67;13.98;;;;;;;24.75;64.37;95094.97;5031820;28;20288;-68
2022/07/06 07:10:05;;;;;;;15.23;13.05;;;;;;;24.79;64.22;95098.09;5031578;28;20223;-67
2022/07/06 07:12:32;;;;;;;19.58;17.13;;;;;;;24.61;64.33;95102.34;5031700;28;21137;-67
2022/07/06 07:14:59;;;;;;;12.35;11.25;;;;;;;24.32;64.86;95105.72;5031095;28;20210;-67
2022/07/06 07:17:27;;;;;;;14.77;13.40;;;;;;;24.13;65.79;95103.06;5031534;28;20315;-65
2022/07/06 07:19:56;;;;;;;14.85;13.35;;;;;;;24.00;65.91;95107.69;5031693;28;20672;-67
2022/07/06 07:22:24;;;;;;;14.82;13.40;;;;;;;23.77;66.76;95106.19;5031759;28;20203;-67
2022/07/06 07:24:51;;;;;;;15.18;13.20;;;;;;;23.97;66.35;95100.97;5031483;28;22075;-66
2022/07/06 07:27:17;;;;;;;13.32;11.98;;;;;;;24.02;65.22;95100.53;5031849;28;21412;-65
2022/07/06 07:29:44;;;;;;;15.30;13.68;;;;;;;24.47;64.93;95100.16;5030033;28;20231;-66
2022/07/06 07:32:11;;;;;;;15.55;13.88;;;;;;;24.92;63.00;95096.06;5031071;28;20211;-66
2022/07/06 07:34:39;;;;;;;14.48;11.13;;;;;;;25.61;61.61;95093.22;5031692;28;20210;-66
2022/07/06 07:37:06;;;;;;;12.73;11.57;;;;;;;26.17;59.72;95094.94;5031396;28;20211;-65
2022/07/06 07:39:33;;;;;;;11.98;10.98;;;;;;;26.46;57.93;95096.59;5030837;28;20211;-65
2022/07/06 07:41:59;;;;;;;12.43;11.18;;;;;;;26.57;58.36;95096.38;5031000;28;20770;-66
2022/07/06 07:44:27;;;;;;;13.80;10.10;;;;;;;26.71;57.95;95091.47;5031149;28;20226;-66
2022/07/06 07:46:54;;;;;;;11.07;10.27;;;;;;;26.64;58.44;95084.41;5031671;28;20238;-67
2022/07/06 07:49:21;;;;;;;13.57;11.25;;;;;;;26.53;58.73;95093.22;5030829;28;21189;-67
2022/07/06 07:51:49;;;;;;;11.88;10.85;;;;;;;26.25;59.12;95089.00;5031087;28;21276;-65
2022/07/06 07:54:18;;;;;;;10.52;9.68;;;;;;;26.29;59.08;95082.53;5031254;28;20289;-66
2022/07/06 07:56:44;;;;;;;12.65;11.38;;;;;;;26.70;58.33;95091.63;5031193;28;20242;-65
2022/07/06 07:59:11;;;;;;;12.13;11.13;;;;;;;26.87;57.26;95093.41;5030080;28;20207;-66
2022/07/06 08:01:38;;;;;;;14.32;11.85;;;;;;;27.08;56.69;95101.75;5030673;28;20206;-66
2022/07/06 08:04:05;;;;;;;14.93;13.15;;;;;;;27.59;55.92;95088.94;5031245;28;20203;-66
2022/07/06 08:06:32;;;;;;;15.52;12.85;;;;;;;28.03;54.23;95087.84;5031319;28;20203;-66
2022/07/06 08:09:00;;;;;;;14.68;11.82;;;;;;;28.20;53.38;95090.53;5030717;28;20269;-67
2022/07/06 08:11:27;;;;;;;16.63;11.40;;;;;;;27.86;54.00;95093.16;5029908;28;20207;-66
2022/07/06 08:13:54;;;;;;;10.27;9.38;;;;;;;27.95;54.68;95089.63;5030846;28;20199;-66
2022/07/06 08:16:20;;;;;;;19.30;10.75;;;;;;;28.08;54.21;95090.81;5030548;28;20256;-69
2022/07/06 08:18:47;;;;;;;14.15;11.35;;;;;;;28.09;54.00;95092.44;5030084;28;20952;-66
2022/07/06 08:21:14;;;;;;;13.90;10.77;;;;;;;28.10;53.72;95085.41;5029921;28;20795;-64
2022/07/06 08:23:41;;;;;;;11.68;10.48;;;;;;;27.69;53.89;95085.25;5030457;28;20300;-65
2022/07/06 08:26:09;;;;;;;14.15;10.82;;;;;;;27.37;55.31;95085.00;5030659;28;20211;-65
2022/07/06 08:28:36;;;;;;;11.05;10.05;;;;;;;27.29;55.24;95090.16;5030235;28;20203;-65
2022/07/06 08:31:03;;;;;;;12.07;10.77;;;;;;;27.13;55.28;95082.22;5030010;28;20257;-66
2022/07/06 08:33:30;;;;;;;11.23;9.45;;;;;;;27.27;54.67;95082.47;5030286;28;20736;-65
2022/07/06 08:35:56;;;;;;;10.57;9.57;;;;;;;27.51;54.71;95081.00;5030191;28;20350;-64
2022/07/06 08:38:23;;;;;;;10.70;9.75;;;;;;;27.82;54.74;95078.75;5030897;28;20317;-66
2022/07/06 08:40:52;;;;;;;11.55;10.45;;;;;;;27.85;53.97;95081.06;5029899;28;20218;-66
2022/07/06 08:43:20;;;;;;;11.52;10.70;;;;;;;27.32;55.91;95082.03;5030629;28;20207;-65
2022/07/06 08:45:49;;;;;;;14.02;10.68;;;;;;;27.06;56.37;95082.81;5030853;28;20207;-65
2022/07/06 08:48:17;;;;;;;11.60;10.25;;;;;;;27.10;56.11;95078.94;5028594;28;20673;-66
2022/07/06 08:50:44;;;;;;;12.02;10.93;;;;;;;27.15;56.18;95083.72;5029590;28;20226;-65
2022/07/06 08:53:11;;;;;;;11.20;10.20;;;;;;;27.36;55.25;95081.59;5029667;28;20677;-66
2022/07/06 08:55:38;;;;;;;11.00;9.68;;;;;;;27.48;55.08;95087.34;5029627;28;20215;-67
2022/07/06 08:58:06;;;;;;;9.70;8.60;;;;;;;27.44;54.76;95086.03;5030276;28;20289;-67
2022/07/06 09:00:35;;;;;;;10.75;9.90;;;;;;;27.18;55.91;95086.03;5028888;28;20209;-65
2022/07/06 09:03:02;;;;;;;11.10;10.23;;;;;;;26.75;57.19;95087.59;5029466;28;20214;-65
2022/07/06 09:05:30;;;;;;;13.88;11.13;;;;;;;26.70;57.31;95089.03;5029225;28;20231;-70
2022/07/06 09:07:57;;;;;;;14.07;11.18;;;;;;;26.95;57.02;95084.88;5030400;28;20207;-71
2022/07/06 09:10:24;;;;;;;11.68;10.63;;;;;;;26.70;57.72;95087.22;5028533;28;20712;-70
2022/07/06 09:12:51;;;;;;;12.55;11.15;;;;;;;26.85;57.35;95087.50;5030118;28;20215;-72
2022/07/06 09:15:18;;;;;;;11.93;10.57;;;;;;;26.92;57.15;95078.13;5029651;28;20215;-69
2022/07/06 09:17:46;;;;;;;12.00;10.55;;;;;;;27.05;57.00;95085.59;5029392;28;20715;-68
2022/07/06 09:20:14;;;;;;;11.68;10.57;;;;;;;27.17;56.72;95088.78;5029368;28;21606;-71
2022/07/06 09:22:41;;;;;;;11.57;10.50;;;;;;;27.17;56.30;95088.78;5030186;28;20211;-70
2022/07/06 09:25:10;;;;;;;11.75;10.80;;;;;;;26.91;57.05;95081.72;5029608;28;20221;-71
2022/07/06 09:27:41;;;;;;;15.40;13.95;;;;;;;26.81;57.60;95080.97;5030013;28;20206;-71
2022/07/06 09:30:10;;;;;;;24.15;20.33;;;;;;;26.80;57.12;95081.94;5028723;28;20227;-71
2022/07/06 09:32:41;;;;;;;25.65;21.55;;;;;;;26.63;57.43;95082.75;5029954;28;20207;-70
2022/07/06 09:35:20;;;;;;;48.40;37.15;;;;;;;26.92;57.06;95075.53;5029342;28;20207;-70
2022/07/06 09:37:48;;;;;;;25.05;22.23;;;;;;;27.00;57.34;95080.81;5028910;28;20290;-70
2022/07/06 09:40:18;;;;;;;28.30;19.70;;;;;;;27.49;55.79;95089.00;5028100;28;20252;-70
2022/07/06 09:42:45;;;;;;;21.05;15.65;;;;;;;27.25;55.29;95081.81;5029014;28;20237;-69
2022/07/06 09:45:12;;;;;;;14.30;12.98;;;;;;;26.98;56.21;95080.16;5028490;28;20211;-69
2022/07/06 09:47:42;;;;;;;15.23;13.77;;;;;;;26.97;56.29;95069.91;5029323;28;20215;-69
2022/07/06 09:50:10;;;;;;;14.07;12.80;;;;;;;26.68;56.87;95065.72;5028041;28;20226;-69
2022/07/06 09:52:38;;;;;;;14.05;12.75;;;;;;;26.75;56.97;95063.28;5028915;28;20203;-69
2022/07/06 09:55:15;;;;;;;14.70;13.30;;;;;;;26.71;57.37;95061.97;5028898;28;20206;-69
2022/07/06 09:57:53;;;;;;;13.48;12.48;;;;;;;26.48;58.01;95063.41;5028393;28;20248;-69
2022/07/06 10:00:20;;;;;;;14.52;13.05;;;;;;;26.43;58.38;95075.06;5027544;28;20214;-69
2022/07/06 10:02:48;;;;;;;20.70;14.10;;;;;;;26.42;58.66;95067.41;5028547;28;20219;-68
2022/07/06 10:05:18;;;;;;;14.43;12.88;;;;;;;26.57;58.56;95076.34;5028364;28;20237;-69
2022/07/06 10:07:46;;;;;;;13.93;12.73;;;;;;;26.75;57.57;95064.13;5028176;28;20203;-68
2022/07/06 10:10:13;;;;;;;12.73;11.65;;;;;;;26.69;57.13;95059.53;5027472;28;20236;-69
2022/07/06 10:12:43;;;;;;;16.35;13.65;;;;;;;26.39;58.42;95063.31;5028119;28;20209;-67
2022/07/06 10:15:11;;;;;;;13.50;12.40;;;;;;;26.45;58.47;95063.69;5027813;28;20649;-68
2022/07/06 10:17:39;;;;;;;14.43;13.02;;;;;;;26.70;57.78;95065.56;5028454;28;21900;-68
2022/07/06 10:20:07;;;;;;;15.52;14.10;;;;;;;26.72;57.98;95053.19;5027890;28;20597;-68
2022/07/06 10:22:36;;;;;;;16.25;12.68;;;;;;;26.78;57.82;95057.78;5028478;28;20219;-68
2022/07/06 10:25:03;;;;;;;14.32;12.88;;;;;;;26.93;57.91;95051.09;5028210;28;21177;-70
2022/07/06 10:27:30;;;;;;;15.02;13.50;;;;;;;26.63;57.56;95049.69;5028784;28;20222;-67
2022/07/06 10:29:57;;;;;;;14.25;13.00;;;;;;;26.61;57.47;95056.00;5026793;28;20788;-67
2022/07/06 10:32:25;;;;;;;13.02;12.00;;;;;;;26.47;56.76;95046.94;5028430;28;20207;-67
2022/07/06 10:34:52;;;;;;;13.75;12.45;;;;;;;26.45;57.52;95050.66;5032500;28;20198;-67
2022/07/06 10:37:25;;;;;;;13.38;12.13;;;;;;;26.50;57.26;95054.44;5033838;28;20217;-67
2022/07/06 10:42:45;;;;;;;14.80;12.82;;;;;;;26.68;56.79;95046.63;5033151;28;20753;-67
2022/07/06 10:45:15;;;;;;;13.80;12.60;;;;;;;26.84;56.79;95046.75;5032704;28;20370;-68
2022/07/06 10:47:43;;;;;;;13.48;12.20;;;;;;;27.09;56.45;95045.19;5032234;28;20708;-67
2022/07/06 10:50:11;;;;;;;12.60;11.57;;;;;;;27.26;55.09;95051.31;5033954;28;20717;-68
2022/07/06 10:52:51;;;;;;;13.10;11.95;;;;;;;27.56;54.57;95045.63;5035095;28;20261;-68
2022/07/06 10:55:33;;;;;;;11.98;11.07;;;;;;;27.42;53.68;95046.22;5034984;28;20619;-68
2022/07/06 10:58:01;;;;;;;13.15;12.00;;;;;;;27.42;54.10;95048.84;5035144;28;20238;-68
2022/07/06 11:00:43;;;;;;;12.13;11.27;;;;;;;27.47;53.01;95041.34;5033945;28;20207;-69
2022/07/06 11:03:31;;;;;;;13.77;12.63;;;;;;;27.27;54.01;95048.56;5034526;28;20202;-68
2022/07/06 11:05:59;;;;;;;14.23;13.07;;;;;;;27.03;55.14;95043.19;5033504;28;20230;-68
2022/07/06 11:08:48;;;;;;;14.50;13.18;;;;;;;27.01;54.50;95038.13;5034575;28;20210;-69
2022/07/06 11:11:19;;;;;;;13.80;12.77;;;;;;;27.29;54.55;95045.81;5033546;28;20669;-69
2022/07/06 11:13:52;;;;;;;15.15;13.65;;;;;;;27.29;54.67;95035.38;5034418;28;20213;-68
2022/07/06 11:16:20;;;;;;;16.17;14.60;;;;;;;27.40;54.65;95035.13;5034735;28;20214;-69
2022/07/06 11:18:59;;;;;;;16.13;13.35;;;;;;;27.47;54.28;95038.72;5034801;28;20195;-68
2022/07/06 11:21:34;;;;;;;15.82;14.18;;;;;;;27.29;55.01;95036.19;5033906;28;20652;-69
2022/07/06 11:24:01;;;;;;;15.43;14.13;;;;;;;27.26;54.65;95027.84;5034599;28;20230;-67
2022/07/06 11:26:31;;;;;;;15.98;14.43;;;;;;;27.26;54.93;95033.06;5034534;28;20260;-68
2022/07/06 11:29:00;;;;;;;14.13;12.85;;;;;;;27.18;54.15;95027.81;5034095;28;20207;-66
2022/07/06 11:31:27;;;;;;;14.88;13.52;;;;;;;27.12;54.55;95024.03;5033929;28;20234;-67
2022/07/06 11:33:54;;;;;;;15.27;14.07;;;;;;;27.19;55.21;95029.44;5034175;28;20205;-68